Pagrindinis puslapis
METAR-TAF:

METAR-TAF

Oro uostai :

Asaluyeh, Iranas

platuma: 27-22-46N, ilguma: 52-44-15E, Aukštis: 8 m

Dabartinis oras

Ataskaita buvo paskelbta 5 valandos ir 35 minutes, ne 17:00 UTC
Vėjas 4 kt iš Pietų/Pietryčių
Temperatūra 33°C
Drėgmė 67%
Slėgis 999 hPa
Matomumas: 5000 m
migla

METAR: OIBP 051700Z 15004KT 5000 HZ NSC 33/26 Q0998 A2949

Laikas: 03:05 (22:35 UTC)


TAF: trūkstamas

Orai ataskaitas ir orų prognozės (METAR, TAF).

turimą stotys yra geltonos ir raudonos taškus žemėlapyje.

Perkelti pele per norėdami pamatyti stoties vardą.

Tada spustelėkite, norėdami matyti oro stebėjimo ir prognozės.

Norėdami pakeisti žemėlapį: spustelėkite ant žalios mygtukų su juodo kryžiaus žemyn,; žalią mygtuką su brūkšneliu, jei norite nutolinti; arba žalių rodyklių gretimoms žemėlapius.


METAR-TAF: